Time;durP1;ratioP1;P1;durP2;ratioP2;P2;SDS_P1;SDS_P2;PMS_P1;PMS_P2;Temp;Humidity;BMP_temperature;BMP_pressure;BME280_temperature;BME280_humidity;BME280_pressure;Samples;Min_cycle;Max_cycle;Signal;HPM_P1;HPM_P2
2022/10/13 00:02:22;;;;;;;21.38;12.25;;;;;;;10.64;84.18;101845.69;5023888;28;20539;-88
2022/10/13 00:04:47;;;;;;;19.08;12.45;;;;;;;10.62;84.43;101839.78;5024931;28;20041;-88
2022/10/13 00:07:12;;;;;;;19.60;13.45;;;;;;;10.59;84.18;101831.34;5025151;28;20385;-86
2022/10/13 00:09:38;;;;;;;19.17;13.20;;;;;;;10.62;84.44;101842.38;5024501;28;20469;-88
2022/10/13 00:12:03;;;;;;;19.15;15.00;;;;;;;10.60;84.87;101839.03;5024765;28;20442;-88
2022/10/13 00:14:29;;;;;;;21.27;12.65;;;;;;;10.60;84.71;101823.47;5024097;28;20143;-86
2022/10/13 00:16:54;;;;;;;17.63;11.95;;;;;;;10.64;84.91;101830.13;5024656;28;20516;-87
2022/10/13 00:19:19;;;;;;;18.77;11.40;;;;;;;10.66;84.48;101827.44;5023969;28;20492;-87
2022/10/13 00:21:45;;;;;;;18.33;11.85;;;;;;;10.68;84.60;101819.56;5024938;28;20118;-85
2022/10/13 00:24:10;;;;;;;20.85;14.48;;;;;;;10.68;84.36;101820.38;5024352;28;20043;-87
2022/10/13 00:26:36;;;;;;;17.60;13.73;;;;;;;10.61;85.79;101812.19;5023429;28;20527;-86
2022/10/13 00:29:02;;;;;;;20.40;12.50;;;;;;;10.70;84.89;101807.31;5023881;28;20485;-88
2022/10/13 00:31:29;;;;;;;16.25;11.20;;;;;;;10.72;85.50;101815.81;5024351;28;20036;-88
2022/10/13 00:33:57;;;;;;;17.17;12.47;;;;;;;10.62;85.06;101805.22;5024245;28;20095;-89
2022/10/13 00:36:23;;;;;;;17.83;10.98;;;;;;;10.73;84.47;101817.50;5024323;28;20025;-90
2022/10/13 00:38:49;;;;;;;17.05;13.10;;;;;;;10.61;85.45;101809.59;5020464;28;20029;-89
2022/10/13 00:41:15;;;;;;;21.30;13.48;;;;;;;10.61;85.30;101819.97;5020196;28;20025;-85
2022/10/13 00:43:52;;;;;;;19.00;12.85;;;;;;;10.68;86.08;101815.19;5023248;28;20026;-87
2022/10/13 00:46:18;;;;;;;18.88;14.30;;;;;;;10.54;85.99;101813.50;5019796;28;20784;-89
2022/10/13 00:48:45;;;;;;;17.33;12.10;;;;;;;10.68;85.23;101822.16;5024433;28;20082;-89
2022/10/13 00:51:13;;;;;;;17.67;11.65;;;;;;;10.70;85.93;101822.88;5024236;28;20025;-88
2022/10/13 00:53:39;;;;;;;18.25;12.65;;;;;;;10.62;86.37;101806.06;5024233;28;20028;-87
2022/10/13 00:56:08;;;;;;;19.20;12.80;;;;;;;10.67;86.19;101812.69;5023045;28;20029;-87
2022/10/13 00:58:35;;;;;;;18.58;12.02;;;;;;;10.75;86.21;101823.41;5025603;28;20071;-88
2022/10/13 01:01:03;;;;;;;20.70;13.23;;;;;;;10.73;86.04;101817.50;5022886;28;20033;-87
2022/10/13 01:03:29;;;;;;;19.98;14.52;;;;;;;10.68;86.19;101814.38;5027910;28;20029;-89
2022/10/13 01:05:57;;;;;;;20.55;13.80;;;;;;;10.73;86.56;101814.91;5024857;28;20044;-89
2022/10/13 01:08:25;;;;;;;;;;;;;;;10.83;85.07;101818.53;5028752;28;20028;-86
2022/10/13 01:11:54;;;;;;;19.63;12.77;;;;;;;10.78;85.27;101815.41;5028832;28;19928;-89
2022/10/13 01:14:57;;;;;;;15.90;11.90;;;;;;;10.81;86.46;101815.22;5027650;28;20155;-86
2022/10/13 01:17:59;;;;;;;19.10;13.75;;;;;;;10.79;85.72;101806.72;5024342;28;20045;-86
2022/10/13 01:21:11;;;;;;;18.00;11.82;;;;;;;10.79;86.65;101817.91;5035312;28;20026;-89
2022/10/13 01:23:55;;;;;;;19.60;11.75;;;;;;;10.74;86.23;101798.41;5018799;28;20036;-86
2022/10/13 01:27:08;;;;;;;18.60;13.88;;;;;;;10.80;86.42;101808.38;5021430;28;20108;-88
2022/10/13 01:29:59;;;;;;;20.80;12.43;;;;;;;10.80;85.93;101808.38;4988168;28;20474;-89
2022/10/13 01:32:33;;;;;;;20.05;14.07;;;;;;;10.77;86.86;101813.75;5024941;28;20043;-89
2022/10/13 01:35:10;;;;;;;18.05;11.60;;;;;;;10.73;86.37;101794.97;5026043;28;20036;-89
2022/10/13 01:37:54;;;;;;;19.63;12.20;;;;;;;10.81;86.66;101810.03;5027795;28;20045;-85
2022/10/13 01:40:28;;;;;;;19.35;13.65;;;;;;;10.78;87.20;101799.84;5015360;28;20045;-88
2022/10/13 01:43:20;;;;;;;20.20;13.07;;;;;;;10.80;87.30;101806.59;5026814;28;20116;-90
2022/10/13 01:45:51;;;;;;;18.27;12.60;;;;;;;10.79;87.37;101801.53;5026043;28;20036;-88
2022/10/13 01:48:19;;;;;;;22.55;13.75;;;;;;;10.76;87.58;101809.50;5027215;28;20033;-86
2022/10/13 01:50:46;;;;;;;21.10;15.20;;;;;;;10.68;87.40;101784.06;5025205;28;20043;-85
2022/10/13 01:53:13;;;;;;;17.98;11.85;;;;;;;10.77;86.83;101803.38;5026694;28;20159;-86
2022/10/13 01:55:53;;;;;;;18.02;12.30;;;;;;;10.75;86.99;101794.88;5026608;28;20080;-88
2022/10/13 01:58:20;;;;;;;18.48;12.48;;;;;;;10.76;87.46;101801.72;5026753;28;20339;-88
2022/10/13 02:01:13;;;;;;;20.23;14.60;;;;;;;10.77;88.15;101803.38;5026632;28;20036;-87
2022/10/13 02:03:53;;;;;;;21.27;12.55;;;;;;;10.78;88.09;101797.25;5022762;28;20030;-89
2022/10/13 02:06:34;;;;;;;19.17;12.70;;;;;;;10.78;87.09;101789.44;5025625;28;20044;-88
2022/10/13 02:09:05;;;;;;;20.98;14.10;;;;;;;10.76;87.41;101786.13;5026140;28;20121;-87
2022/10/13 02:11:31;;;;;;;19.05;14.18;;;;;;;10.74;87.92;101793.22;5026026;28;20037;-87
2022/10/13 02:14:13;;;;;;;17.67;11.48;;;;;;;10.76;87.98;101776.59;5026613;28;20028;-88
2022/10/13 02:16:42;;;;;;;19.98;13.05;;;;;;;10.74;87.94;101777.63;5022913;28;20032;-89
2022/10/13 02:19:11;;;;;;;19.63;13.55;;;;;;;10.70;87.84;101770.97;5027239;28;20033;-88
2022/10/13 02:21:38;;;;;;;21.17;15.20;;;;;;;10.79;87.49;101766.00;5026168;28;20072;-86
2022/10/13 02:24:05;;;;;;;21.48;12.38;;;;;;;10.78;87.96;101764.38;5025290;28;20025;-88
2022/10/13 02:26:32;;;;;;;19.67;11.60;;;;;;;10.75;87.97;101743.78;5026277;28;20037;-84
2022/10/13 02:28:58;;;;;;;18.15;13.02;;;;;;;10.74;87.86;101756.88;5025700;28;20030;-88
2022/10/13 02:31:23;;;;;;;18.88;11.45;;;;;;;10.76;88.66;101755.00;5019565;28;20516;-89
2022/10/13 02:33:49;;;;;;;18.23;13.10;;;;;;;10.72;87.78;101746.59;5024407;28;20537;-89
2022/10/13 02:36:14;;;;;;;22.13;12.52;;;;;;;10.79;87.96;101765.19;5024267;28;20045;-89
2022/10/13 02:38:39;;;;;;;19.02;12.18;;;;;;;10.78;88.23;101753.97;5024508;28;20499;-89
2022/10/13 02:41:05;;;;;;;18.73;13.90;;;;;;;10.83;88.27;101757.06;5026519;28;20462;-89
2022/10/13 02:43:32;;;;;;;19.10;12.07;;;;;;;10.82;88.27;101744.22;5025314;28;20072;-84
2022/10/13 02:45:58;;;;;;;17.35;10.95;;;;;;;10.80;88.22;101736.53;5020904;28;20057;-87
2022/10/13 02:48:23;;;;;;;20.85;14.77;;;;;;;10.79;88.74;101745.25;5024419;28;20504;-84
2022/10/13 02:50:48;;;;;;;18.08;10.90;;;;;;;10.91;88.34;101748.78;5024541;28;20029;-88
2022/10/13 02:53:14;;;;;;;16.85;9.85;;;;;;;10.87;88.93;101736.94;5025845;28;20038;-89
2022/10/13 02:55:39;;;;;;;15.65;9.88;;;;;;;10.92;88.08;101740.06;5023998;28;20034;-90
2022/10/13 02:58:04;;;;;;;15.60;11.38;;;;;;;10.86;88.73;101727.50;5024625;28;20095;-89
2022/10/13 03:00:30;;;;;;;16.42;9.82;;;;;;;11.01;88.60;101747.22;5024896;28;20088;-88
2022/10/13 03:02:55;;;;;;;17.50;11.05;;;;;;;11.00;88.63;101742.94;5025075;28;20156;-86
2022/10/13 03:05:21;;;;;;;16.38;12.63;;;;;;;10.96;88.16;101725.94;5023882;28;20536;-88
2022/10/13 03:07:46;;;;;;;19.50;12.35;;;;;;;10.98;88.53;101723.22;5024762;28;20476;-89
2022/10/13 03:13:36;;;;;;;16.85;11.70;;;;;;;11.07;88.36;101725.22;3581428;28;22269;-89
2022/10/13 03:16:01;;;;;;;18.52;10.98;;;;;;;11.03;88.77;101711.59;5012536;28;20044;-89
2022/10/13 03:18:26;;;;;;;15.50;9.15;;;;;;;11.09;88.14;101721.56;5008110;28;20048;-88
2022/10/13 03:20:59;;;;;;;17.00;10.18;;;;;;;11.11;88.68;101719.66;5015596;28;20037;-88
2022/10/13 03:23:25;;;;;;;19.10;11.55;;;;;;;11.11;88.41;101719.66;5005449;28;20129;-89
2022/10/13 03:25:50;;;;;;;17.55;13.43;;;;;;;11.11;89.03;101724.84;5006148;28;20466;-84
2022/10/13 03:28:16;;;;;;;19.90;11.18;;;;;;;11.10;88.98;101723.22;5005545;28;20064;-89
2022/10/13 03:30:41;;;;;;;19.40;11.63;;;;;;;11.10;88.69;101723.22;5006200;28;20028;-87
2022/10/13 03:33:06;;;;;;;17.80;10.50;;;;;;;11.10;88.39;101707.63;5005942;28;20034;-87
2022/10/13 03:35:32;;;;;;;16.92;10.00;;;;;;;11.14;88.48;101719.47;5005461;28;20172;-88
2022/10/13 03:37:58;;;;;;;19.00;11.55;;;;;;;11.09;88.96;101711.16;5005318;28;20026;-91
2022/10/13 03:40:23;;;;;;;18.83;11.82;;;;;;;11.09;88.78;101700.78;5005497;28;20036;-89
2022/10/13 03:42:49;;;;;;;20.00;12.02;;;;;;;11.08;88.31;101704.31;5005164;28;20044;-89
2022/10/13 03:45:14;;;;;;;16.15;10.07;;;;;;;11.12;88.38;101705.75;4986807;28;20050;-89
2022/10/13 03:47:39;;;;;;;19.27;13.52;;;;;;;11.15;89.38;101718.53;4987614;28;20096;-85
2022/10/13 03:50:08;;;;;;;17.95;11.45;;;;;;;11.19;89.32;101705.34;5002756;28;20022;-88
2022/10/13 03:52:34;;;;;;;19.27;12.85;;;;;;;11.05;89.03;101693.31;5001128;28;20044;-84
2022/10/13 03:54:59;;;;;;;19.52;13.07;;;;;;;11.21;89.26;101711.25;4999529;28;20029;-89
2022/10/13 03:57:25;;;;;;;16.17;10.23;;;;;;;11.22;88.92;101710.31;5006948;28;20038;-86
2022/10/13 03:59:50;;;;;;;16.40;10.00;;;;;;;11.22;88.89;101711.13;5004957;28;20072;-85
2022/10/13 04:02:15;;;;;;;16.02;12.23;;;;;;;11.16;88.60;101707.19;4989365;28;20088;-90
2022/10/13 04:04:41;;;;;;;19.40;9.88;;;;;;;11.26;88.84;101698.78;4987980;28;20048;-89
2022/10/13 04:07:06;;;;;;;16.15;12.63;;;;;;;11.21;88.74;101698.28;5005166;28;20450;-89
2022/10/13 04:09:32;;;;;;;18.50;10.13;;;;;;;11.14;88.90;101675.34;4985480;28;20529;-89
2022/10/13 04:11:57;;;;;;;18.08;13.00;;;;;;;11.25;89.28;101686.72;4987104;28;20105;-85
2022/10/13 04:14:23;;;;;;;14.80;9.30;;;;;;;11.27;89.00;101682.25;5012713;28;20123;-88
2022/10/13 04:16:48;;;;;;;16.90;10.73;;;;;;;11.25;89.08;101678.94;5022874;28;20037;-88
2022/10/13 04:19:14;;;;;;;17.23;11.52;;;;;;;11.26;88.16;101680.59;5022677;28;20037;-85
2022/10/13 04:21:41;;;;;;;17.33;9.18;;;;;;;11.30;89.19;101698.47;5023068;28;20075;-86
2022/10/13 04:24:07;;;;;;;19.23;12.00;;;;;;;11.20;88.99;101686.22;5018775;28;20336;-89
2022/10/13 04:26:35;;;;;;;16.92;13.32;;;;;;;11.20;89.85;101670.66;5024129;28;20385;-88
2022/10/13 04:29:03;;;;;;;17.27;11.27;;;;;;;11.22;89.73;101673.94;5021457;28;20033;-85
2022/10/13 04:31:29;;;;;;;19.38;12.57;;;;;;;11.24;89.69;101685.91;5018689;28;20029;-88
2022/10/13 04:33:55;;;;;;;17.05;10.77;;;;;;;11.16;90.44;101660.47;5012680;28;20025;-89
2022/10/13 04:36:20;;;;;;;15.60;10.45;;;;;;;11.26;89.84;101675.41;5023887;28;20041;-85
2022/10/13 04:38:46;;;;;;;16.60;11.27;;;;;;;11.17;89.60;101661.28;5022827;28;20101;-88
2022/10/13 04:41:13;;;;;;;19.50;11.70;;;;;;;11.19;89.87;101658.59;5027335;28;20029;-86
2022/10/13 04:43:39;;;;;;;17.42;12.80;;;;;;;11.27;89.07;101666.66;5019567;28;20040;-85
2022/10/13 04:46:08;;;;;;;17.23;10.82;;;;;;;11.27;89.85;101666.66;5027300;28;20136;-89
2022/10/13 04:48:33;;;;;;;16.42;11.63;;;;;;;11.24;89.88;101666.88;5025819;28;20051;-85
2022/10/13 04:51:04;;;;;;;17.02;11.82;;;;;;;11.28;89.62;101663.13;5026635;28;20037;-86
2022/10/13 04:53:30;;;;;;;18.20;11.18;;;;;;;11.28;89.74;101652.75;5026342;28;20030;-85
2022/10/13 04:56:00;;;;;;;17.17;12.32;;;;;;;11.24;89.98;101651.28;5028275;28;20025;-82
2022/10/13 04:58:25;;;;;;;21.55;12.63;;;;;;;11.22;89.59;101642.78;5025820;28;20501;-85
2022/10/13 05:00:51;;;;;;;18.17;12.55;;;;;;;11.17;89.46;101656.09;5026347;28;20030;-84
2022/10/13 05:03:16;;;;;;;17.35;11.15;;;;;;;11.27;90.38;101682.25;5025223;28;20055;-85
2022/10/13 05:05:42;;;;;;;18.58;9.07;;;;;;;11.28;90.35;101687.34;5021776;28;20462;-82
2022/10/13 05:08:08;;;;;;;15.32;10.80;;;;;;;11.22;90.38;101673.94;5027636;28;20373;-87
2022/10/13 05:10:34;;;;;;;16.15;11.68;;;;;;;11.22;90.98;101679.97;5023745;28;20033;-80
2022/10/13 05:12:59;;;;;;;19.05;12.60;;;;;;;11.16;90.45;101681.22;5024489;28;20104;-79
2022/10/13 05:15:24;;;;;;;18.85;10.82;;;;;;;11.21;89.84;101680.09;5024306;28;20460;-79
2022/10/13 05:17:49;;;;;;;19.05;12.95;;;;;;;11.19;90.50;101680.22;5024344;28;20032;-79
2022/10/13 05:20:16;;;;;;;19.00;12.45;;;;;;;11.15;90.58;101668.38;5022405;28;20021;-79
2022/10/13 05:22:42;;;;;;;16.67;10.90;;;;;;;11.21;90.84;101661.91;5024629;28;20033;-79
2022/10/13 05:25:07;;;;;;;17.10;12.18;;;;;;;11.22;90.81;101668.75;5020598;28;20094;-79
2022/10/13 05:27:32;;;;;;;19.67;12.05;;;;;;;11.24;90.92;101682.44;5024026;28;20083;-79
2022/10/13 05:29:58;;;;;;;18.92;11.95;;;;;;;11.16;90.99;101660.47;5024122;28;20026;-78
2022/10/13 05:32:23;;;;;;;16.25;10.98;;;;;;;11.22;90.90;101663.56;5023696;28;20100;-79
2022/10/13 05:34:49;;;;;;;20.63;10.20;;;;;;;11.24;90.24;101677.25;5023962;28;20116;-79
2022/10/13 05:37:15;;;;;;;16.25;9.68;;;;;;;11.25;90.78;101684.13;5023876;28;20026;-79
2022/10/13 05:39:41;;;;;;;17.90;12.43;;;;;;;11.16;91.40;101681.22;5024765;28;20025;-80
2022/10/13 05:42:07;;;;;;;22.60;12.35;;;;;;;11.11;91.57;101657.34;5027435;28;20037;-79
2022/10/13 05:44:32;;;;;;;19.70;14.70;;;;;;;11.20;91.68;101681.84;5026831;28;20036;-79
2022/10/13 05:46:58;;;;;;;19.73;11.85;;;;;;;11.23;91.77;101675.59;5027788;28;20484;-79
2022/10/13 05:49:23;;;;;;;16.48;12.05;;;;;;;11.16;91.71;101670.03;5026779;28;20040;-79
2022/10/13 05:51:53;;;;;;;18.95;12.60;;;;;;;11.15;91.74;101669.19;5027526;28;20033;-79
2022/10/13 05:54:28;;;;;;;19.70;13.82;;;;;;;11.12;92.69;101664.22;5022750;28;20504;-79
2022/10/13 05:57:11;;;;;;;18.52;12.48;;;;;;;11.25;91.27;101666.78;5027299;28;20120;-81
2022/10/13 05:59:43;;;;;;;15.95;11.98;;;;;;;11.14;91.87;101651.13;5024705;28;20045;-80
2022/10/13 06:02:12;;;;;;;20.95;13.10;;;;;;;11.16;92.44;101657.88;5026069;28;20087;-80
2022/10/13 06:04:40;;;;;;;;;;;;;;;11.32;91.14;101670.59;5027255;28;20553;-80
2022/10/13 06:07:06;;;;;;;20.85;10.35;;;;;;;11.26;90.81;101665.00;5025864;28;19959;-81
2022/10/13 06:09:36;;;;;;;17.92;13.40;;;;;;;11.25;92.15;101671.97;5024706;28;20053;-81
2022/10/13 06:12:02;;;;;;;17.48;10.40;;;;;;;11.25;92.03;101655.56;5025345;28;20029;-81
2022/10/13 06:14:27;;;;;;;18.92;9.60;;;;;;;11.25;90.82;101652.97;5026730;28;20119;-81
2022/10/13 06:16:53;;;;;;;18.00;11.48;;;;;;;11.33;91.47;101661.88;5025179;28;20025;-81
2022/10/13 06:19:18;;;;;;;19.67;11.80;;;;;;;11.28;91.52;101650.16;5025061;28;20013;-81
2022/10/13 06:21:43;;;;;;;20.58;11.15;;;;;;;11.28;92.30;101647.53;5025744;28;20108;-80
2022/10/13 06:24:08;;;;;;;22.00;12.55;;;;;;;11.21;92.37;101641.97;5025253;28;20036;-80
2022/10/13 06:26:34;;;;;;;21.35;12.45;;;;;;;11.27;92.54;101651.09;5018764;28;20029;-81
2022/10/13 06:28:59;;;;;;;21.33;14.07;;;;;;;11.25;93.29;101652.97;5026747;28;20521;-82
2022/10/13 06:31:25;;;;;;;19.10;10.82;;;;;;;11.30;93.06;101656.06;5024202;28;20067;-81
2022/10/13 06:33:50;;;;;;;20.98;11.95;;;;;;;11.24;93.87;101657.34;5026672;28;20021;-81
2022/10/13 06:36:15;;;;;;;18.63;12.05;;;;;;;11.25;93.95;101658.16;5026548;28;20417;-81
2022/10/13 06:38:41;;;;;;;17.67;11.25;;;;;;;11.24;93.66;101659.09;5026558;28;20017;-81
2022/10/13 06:41:06;;;;;;;21.60;14.98;;;;;;;11.25;92.84;101652.97;5026549;28;20484;-81
2022/10/13 06:43:32;;;;;;;21.25;12.68;;;;;;;11.28;93.33;101657.94;5024104;28;20541;-81
2022/10/13 06:45:58;;;;;;;19.40;14.55;;;;;;;11.22;93.71;101648.81;5025926;28;20029;-80
2022/10/13 06:48:24;;;;;;;19.80;14.13;;;;;;;11.28;92.73;101648.38;5025281;28;20416;-80
2022/10/13 06:50:49;;;;;;;19.90;12.85;;;;;;;11.25;93.63;101648.63;5025823;28;20026;-80
2022/10/13 06:53:15;;;;;;;19.23;13.15;;;;;;;11.29;93.18;101654.41;5023685;28;20027;-79
2022/10/13 06:55:42;;;;;;;19.27;12.13;;;;;;;11.33;92.95;101661.03;5026084;28;20025;-80
2022/10/13 06:58:08;;;;;;;17.00;11.15;;;;;;;11.28;92.22;101643.19;5025618;28;20037;-80
2022/10/13 07:00:33;;;;;;;18.48;13.63;;;;;;;11.24;92.38;101635.72;5022850;28;20052;-80
2022/10/13 07:02:58;;;;;;;19.75;14.35;;;;;;;11.31;92.02;101647.34;5023278;28;20294;-80
2022/10/13 07:05:24;;;;;;;16.52;11.80;;;;;;;11.29;92.53;101636.22;5025814;28;20030;-80
2022/10/13 07:07:52;;;;;;;19.25;13.63;;;;;;;11.38;91.96;101653.75;5025047;28;20021;-80
2022/10/13 07:10:17;;;;;;;19.90;14.48;;;;;;;11.35;92.04;101641.78;5025301;28;20028;-80
2022/10/13 07:12:43;;;;;;;17.92;10.55;;;;;;;11.31;91.84;101634.34;5026159;28;20021;-80
2022/10/13 07:15:08;;;;;;;22.02;11.98;;;;;;;11.35;92.46;101638.38;5025712;28;20052;-80
2022/10/13 07:17:34;;;;;;;21.33;14.75;;;;;;;11.35;92.10;101648.75;5023497;28;20034;-80
2022/10/13 07:20:01;;;;;;;19.55;13.00;;;;;;;11.34;92.24;101639.31;5025490;28;20045;-80
2022/10/13 07:22:26;;;;;;;19.55;14.05;;;;;;;11.34;92.07;101641.91;5019851;28;20033;-80
2022/10/13 07:24:52;;;;;;;20.63;14.43;;;;;;;11.39;92.11;101650.22;5025942;28;20483;-80
2022/10/13 07:27:17;;;;;;;16.92;12.30;;;;;;;11.38;92.05;101648.56;5025634;28;20438;-80
2022/10/13 07:29:42;;;;;;;20.75;16.10;;;;;;;11.41;91.76;101653.50;5025466;28;20032;-80
2022/10/13 07:32:08;;;;;;;20.05;12.82;;;;;;;11.41;91.57;101651.78;5024005;28;20444;-81
2022/10/13 07:34:33;;;;;;;21.33;15.52;;;;;;;11.39;91.44;101647.63;5024819;28;20033;-80
2022/10/13 07:36:58;;;;;;;22.38;15.18;;;;;;;11.44;91.44;101654.13;5025035;28;20505;-80
2022/10/13 07:39:24;;;;;;;17.63;12.98;;;;;;;11.41;91.56;101643.13;5024559;28;20029;-80
2022/10/13 07:41:49;;;;;;;19.88;13.40;;;;;;;11.44;91.66;101637.72;5025881;28;20080;-80
2022/10/13 07:44:14;;;;;;;21.40;15.95;;;;;;;11.44;91.50;101637.72;5022586;28;20399;-80
2022/10/13 07:46:40;;;;;;;22.15;15.45;;;;;;;11.45;91.39;101636.78;5023588;28;20124;-80
2022/10/13 07:49:05;;;;;;;19.83;16.17;;;;;;;11.46;92.02;101640.19;5024943;28;20376;-80
2022/10/13 07:51:30;;;;;;;19.33;15.20;;;;;;;11.51;92.09;101644.13;5024724;28;20032;-80
2022/10/13 07:53:55;;;;;;;19.80;11.20;;;;;;;11.49;91.99;101646.00;5017230;28;20443;-80
2022/10/13 07:56:21;;;;;;;64.90;21.05;;;;;;;11.52;91.69;101640.59;5025316;28;20330;-80
2022/10/13 07:58:46;;;;;;;44.00;13.68;;;;;;;11.57;91.54;101648.88;5024706;28;20111;-80
2022/10/13 08:01:12;;;;;;;21.63;11.63;;;;;;;11.61;91.65;101655.50;5023308;28;20100;-80
2022/10/13 08:03:39;;;;;;;17.75;11.32;;;;;;;11.57;91.50;101651.47;5023451;28;20029;-80
2022/10/13 08:06:06;;;;;;;19.83;13.85;;;;;;;11.64;91.30;101655.31;5022948;28;20029;-80
2022/10/13 08:08:32;;;;;;;22.80;17.42;;;;;;;11.64;91.56;101654.44;5024666;28;20060;-80
2022/10/13 08:11:06;;;;;;;19.27;13.43;;;;;;;11.69;91.66;101642.78;5025042;28;20112;-80
2022/10/13 08:13:32;;;;;;;20.80;14.10;;;;;;;11.62;91.35;101626.00;5023321;28;20021;-80
2022/10/13 08:16:00;;;;;;;24.33;15.13;;;;;;;11.71;91.63;101650.50;5024191;28;20025;-80
2022/10/13 08:18:26;;;;;;;19.35;11.65;;;;;;;11.68;91.20;101635.94;5024448;28;20096;-81
2022/10/13 08:20:51;;;;;;;20.42;13.50;;;;;;;11.75;91.40;101645.88;5023310;28;20558;-80
2022/10/13 08:23:17;;;;;;;20.77;15.45;;;;;;;11.74;91.60;101639.03;5024713;28;20025;-80
2022/10/13 08:25:43;;;;;;;22.17;16.50;;;;;;;11.84;90.99;101637.44;5023019;28;20372;-80
2022/10/13 08:28:21;;;;;;;22.08;16.02;;;;;;;11.85;91.12;101636.50;5024339;28;20028;-80
2022/10/13 08:30:47;;;;;;;19.33;13.25;;;;;;;11.91;91.07;101646.44;5023827;28;20021;-80
2022/10/13 08:33:13;;;;;;;25.17;15.45;;;;;;;11.98;90.86;101647.63;5024239;28;20026;-80
2022/10/13 08:35:38;;;;;;;22.77;16.75;;;;;;;11.95;90.66;101637.47;5023330;28;20029;-80
2022/10/13 08:38:04;;;;;;;20.42;14.32;;;;;;;11.99;90.90;101633.72;5023851;28;20033;-80
2022/10/13 08:40:29;;;;;;;22.92;12.90;;;;;;;12.06;90.53;101634.91;5023744;28;20037;-80
2022/10/13 08:42:56;;;;;;;24.05;14.75;;;;;;;12.09;91.45;101624.25;5022147;28;20040;-80
2022/10/13 08:45:27;;;;;;;21.40;15.73;;;;;;;12.13;90.66;101632.66;5022816;28;20021;-81
2022/10/13 08:47:57;;;;;;;19.92;13.52;;;;;;;12.21;91.19;101633.75;5022589;28;20036;-80
2022/10/13 08:50:26;;;;;;;19.35;14.68;;;;;;;12.25;91.43;101641.31;5023935;28;20032;-81
2022/10/13 08:52:54;;;;;;;;;;;;;;;12.35;90.78;101634.47;5023124;28;20036;-80
2022/10/13 08:55:39;;;;;;;20.85;15.93;;;;;;;12.38;90.48;101634.22;5022093;28;20396;-81
2022/10/13 08:58:30;;;;;;;21.27;12.50;;;;;;;12.42;90.93;101633.06;5023002;28;20388;-80
2022/10/13 09:01:23;;;;;;;131.75;27.73;;;;;;;12.49;90.46;101629.03;5023640;28;20052;-81
2022/10/13 09:03:51;;;;;;;30.70;17.05;;;;;;;12.51;90.43;101627.16;5008823;28;20540;-80
2022/10/13 09:06:27;;;;;;;21.20;11.95;;;;;;;12.55;89.24;101628.56;5023996;28;20069;-81
2022/10/13 09:08:56;;;;;;;20.95;15.75;;;;;;;12.45;89.77;101627.63;5024460;28;20353;-81
2022/10/13 09:11:22;;;;;;;23.25;16.20;;;;;;;12.49;89.33;101621.22;5023278;28;20434;-81
2022/10/13 09:13:52;;;;;;;23.70;15.80;;;;;;;12.52;89.09;101626.22;5023098;28;20049;-81
2022/10/13 09:16:25;;;;;;;22.65;17.45;;;;;;;12.59;89.26;101632.59;5026851;28;20035;-81
2022/10/13 09:18:51;;;;;;;21.85;16.77;;;;;;;12.53;89.23;101612.25;5028468;28;20021;-80
2022/10/13 09:21:23;;;;;;;18.83;16.25;;;;;;;12.56;89.39;101622.44;5020756;28;20044;-81
2022/10/13 09:23:52;;;;;;;23.15;16.27;;;;;;;12.62;89.32;101637.56;5028310;28;20022;-81
2022/10/13 09:26:22;;;;;;;21.60;16.25;;;;;;;12.68;89.16;101634.50;5020040;28;20033;-81
2022/10/13 09:28:48;;;;;;;21.02;15.80;;;;;;;12.68;88.58;101629.28;5028231;28;20043;-81
2022/10/13 09:31:36;;;;;;;22.45;16.63;;;;;;;12.64;88.92;101612.25;5028187;28;20477;-81
2022/10/13 09:34:06;;;;;;;20.95;13.85;;;;;;;12.76;88.66;101616.50;5027736;28;20025;-81
2022/10/13 09:36:31;;;;;;;21.98;14.68;;;;;;;12.67;88.60;101604.22;5026796;28;20017;-81
2022/10/13 09:39:14;;;;;;;21.63;15.45;;;;;;;12.84;88.70;101615.06;5027647;28;20048;-81
2022/10/13 09:41:42;;;;;;;19.02;13.82;;;;;;;12.84;88.59;101620.25;5020326;28;20860;-81
2022/10/13 09:44:17;;;;;;;21.13;16.13;;;;;;;12.85;88.76;101614.97;5027160;28;20029;-81
2022/10/13 09:46:50;;;;;;;20.55;15.70;;;;;;;12.79;88.44;101602.44;5036560;28;20033;-81
2022/10/13 09:49:36;;;;;;;24.48;14.25;;;;;;;12.92;88.41;101612.69;5027404;28;20115;-81
2022/10/13 09:52:11;;;;;;;20.13;15.60;;;;;;;12.93;88.55;101616.94;5024914;28;20095;-80
2022/10/13 09:54:39;;;;;;;22.80;15.57;;;;;;;12.96;88.66;101619.28;5025730;28;20416;-81
2022/10/13 09:57:10;;;;;;;20.25;10.38;;;;;;;12.94;88.40;101598.59;5027464;28;20095;-81
2022/10/13 09:59:49;;;;;;;21.55;16.17;;;;;;;13.03;87.88;101612.69;5025641;28;20032;-81
2022/10/13 10:02:21;;;;;;;18.02;14.90;;;;;;;13.04;87.57;101606.50;5027229;28;20037;-80
2022/10/13 10:04:48;;;;;;;22.90;15.63;;;;;;;13.05;87.73;101602.13;5027561;28;20521;-80
2022/10/13 10:07:22;;;;;;;17.85;15.13;;;;;;;13.05;88.15;101607.34;5024227;28;20119;-80
2022/10/13 10:09:52;;;;;;;20.70;14.55;;;;;;;12.98;87.96;101596.59;5025339;28;20041;-80
2022/10/13 10:12:22;;;;;;;18.25;14.75;;;;;;;13.05;87.70;101608.16;5026321;28;20362;-81
2022/10/13 10:14:49;;;;;;;22.98;14.25;;;;;;;13.05;88.15;101597.75;5026717;28;20056;-81
2022/10/13 10:17:32;;;;;;;20.90;15.27;;;;;;;13.07;87.82;101606.25;5024902;28;20037;-80
2022/10/13 10:20:27;;;;;;;19.85;14.95;;;;;;;13.11;88.21;101606.84;5017078;28;20687;-81
2022/10/13 10:23:11;;;;;;;17.80;13.95;;;;;;;13.12;88.00;101598.91;5023099;28;20076;-81
2022/10/13 10:25:43;;;;;;;21.35;15.48;;;;;;;13.11;87.33;101602.47;5025756;28;20032;-81
2022/10/13 10:28:30;;;;;;;19.65;15.13;;;;;;;13.14;88.13;101602.22;5021546;28;20060;-81
2022/10/13 10:31:29;;;;;;;20.92;15.40;;;;;;;13.14;88.36;101604.84;5026312;28;20041;-82
2022/10/13 10:34:07;;;;;;;21.17;15.95;;;;;;;13.10;88.88;101600.00;5018556;28;20091;-81
2022/10/13 10:37:20;;;;;;;19.90;16.38;;;;;;;13.02;89.83;101598.84;5026003;28;20025;-80
2022/10/13 10:39:53;;;;;;;19.35;15.20;;;;;;;12.91;90.04;101595.44;5016698;28;20041;-80
2022/10/13 10:42:43;;;;;;;23.02;17.08;;;;;;;12.93;90.78;101598.72;5026399;28;20036;-80
2022/10/13 10:45:21;;;;;;;23.55;16.65;;;;;;;12.85;91.17;101595.91;5026357;28;20033;-80
2022/10/13 10:47:53;;;;;;;20.25;17.38;;;;;;;12.82;91.38;101606.56;5026640;28;20029;-80
2022/10/13 10:50:19;;;;;;;22.45;17.23;;;;;;;12.80;91.57;101592.84;5025556;28;20022;-81
2022/10/13 10:52:49;;;;;;;20.77;17.67;;;;;;;12.81;92.78;101605.72;5025848;28;20052;-81
2022/10/13 10:55:54;;;;;;;20.13;17.02;;;;;;;12.81;93.57;101610.09;5026101;28;20083;-80
2022/10/13 10:58:24;;;;;;;23.52;19.10;;;;;;;12.69;93.09;101599.72;5022720;28;20057;-80
2022/10/13 11:01:04;;;;;;;24.30;19.13;;;;;;;12.68;93.94;101594.63;5025535;28;20051;-80
2022/10/13 11:03:55;;;;;;;21.33;18.85;;;;;;;12.70;94.11;101603.97;5023080;28;20030;-81
2022/10/13 11:06:25;;;;;;;24.90;19.98;;;;;;;12.67;94.08;101601.63;5017849;28;20118;-79
2022/10/13 11:08:51;;;;;;;25.00;19.77;;;;;;;12.60;94.12;101577.00;5026202;28;20104;-80
2022/10/13 11:15:12;;;;;;;22.83;16.77;;;;;;;12.64;94.08;101572.38;4895034;29;20067;-80
2022/10/13 11:17:40;;;;;;;21.67;16.48;;;;;;;12.63;94.80;101575.94;4907067;29;20052;-79
2022/10/13 11:20:20;;;;;;;23.50;20.60;;;;;;;12.67;95.07;101583.41;4906950;29;20108;-80
2022/10/13 11:22:57;;;;;;;22.50;15.82;;;;;;;12.72;94.80;101581.22;4906783;29;20197;-79
2022/10/13 11:25:39;;;;;;;24.95;20.77;;;;;;;12.65;95.70;101580.06;4903889;29;20063;-79
2022/10/13 11:28:22;;;;;;;26.20;21.10;;;;;;;12.70;95.16;101571.91;4907002;29;20472;-79
2022/10/13 11:30:51;;;;;;;23.38;20.88;;;;;;;12.66;95.23;101571.31;4906636;29;20044;-79